KHII/HII METAR and TAF weather

Enter ICAO airport designator
Station Type Date Time Source
KHII METAR 2022/07/03 14:15 UTC NOAA

KHII 031415Z AUTO 31004KT 10SM CLR 31/07 A2976 RMK AO2


Station Type Date Time Source
KHII Decoded METAR 2022/07/03 14:15 UTC NOAA

Station name not available
Jul 03, 2022 - 10:15 AM EDT / 2022.07.03 1415 UTC
Wind: from the NW (310 degrees) at 5 MPH (4 KT):0
Visibility: 10 mile(s):0
Sky conditions: clear
Temperature: 87 F (31 C)
Dew Point: 44 F (7 C)
Relative Humidity: 22%
Pressure (altimeter): 29.76 in. Hg (1007 hPa)
ob: KHII 031415Z AUTO 31004KT 10SM CLR 31/07 A2976 RMK AO2
cycle: 14

Station Type Date Time Source
KHII TAF UTC NOAA

Error!

Example: see airport list